createdAt,value
2022-08-26T00:02:01.880Z,26.22
2022-08-26T00:04:31.401Z,26.23
2022-08-26T00:06:58.886Z,26.24
2022-08-26T00:09:26.650Z,26.31
2022-08-26T00:11:55.788Z,26.40
2022-08-26T00:14:28.312Z,26.39
2022-08-26T00:16:59.685Z,26.29
2022-08-26T00:19:26.940Z,26.30
2022-08-26T00:21:54.248Z,26.24
2022-08-26T00:24:23.709Z,26.17
2022-08-26T00:26:51.485Z,26.10
2022-08-26T00:29:19.801Z,26.10
2022-08-26T00:31:48.874Z,26.07
2022-08-26T00:34:16.866Z,26.18
2022-08-26T00:36:47.229Z,26.26
2022-08-26T00:39:17.496Z,26.23
2022-08-26T00:41:47.775Z,26.20
2022-08-26T00:44:14.809Z,26.15
2022-08-26T00:46:46.814Z,26.18
2022-08-26T00:49:26.047Z,26.19
2022-08-26T00:51:59.964Z,26.08
2022-08-26T00:54:32.285Z,25.99
2022-08-26T00:57:03.949Z,26.07
2022-08-26T00:59:33.156Z,26.23
2022-08-26T01:02:03.205Z,26.26
2022-08-26T01:04:33.626Z,26.39
2022-08-26T01:07:01.564Z,26.24
2022-08-26T01:09:28.872Z,26.20
2022-08-26T01:12:00.461Z,26.25
2022-08-26T01:14:34.193Z,26.20
2022-08-26T01:17:07.247Z,26.24
2022-08-26T01:20:08.686Z,26.26
2022-08-26T01:22:55.181Z,26.25
2022-08-26T01:25:25.394Z,26.22
2022-08-26T01:27:57.561Z,26.13
2022-08-26T01:30:28.185Z,26.20
2022-08-26T01:32:57.803Z,26.22
2022-08-26T01:35:28.305Z,26.23
2022-08-26T01:37:56.552Z,26.25
2022-08-26T01:40:28.466Z,26.05
2022-08-26T01:42:56.172Z,25.84
2022-08-26T01:45:28.671Z,25.88
2022-08-26T01:47:59.257Z,25.94
2022-08-26T01:50:31.298Z,25.87
2022-08-26T01:53:02.777Z,25.82
2022-08-26T01:55:34.112Z,25.89
2022-08-26T01:58:06.630Z,25.91
2022-08-26T02:00:35.634Z,25.94
2022-08-26T02:03:17.888Z,25.89
2022-08-26T02:05:48.640Z,25.83
2022-08-26T02:08:24.668Z,25.91
2022-08-26T02:10:54.917Z,26.02
2022-08-26T02:13:25.471Z,26.11
2022-08-26T02:15:53.747Z,26.16
2022-08-26T02:18:23.083Z,26.09
2022-08-26T02:20:54.196Z,26.19
2022-08-26T02:23:21.683Z,26.25
2022-08-26T02:26:17.888Z,26.22
2022-08-26T02:28:58.476Z,26.24
2022-08-26T02:31:27.935Z,26.35
2022-08-26T02:34:06.664Z,26.26
2022-08-26T02:36:33.695Z,26.43
2022-08-26T02:39:01.720Z,26.50
2022-08-26T02:41:28.643Z,26.48
2022-08-26T02:43:56.081Z,26.44
2022-08-26T02:46:29.832Z,26.38
2022-08-26T02:48:57.908Z,26.19
2022-08-26T02:51:25.225Z,26.27
2022-08-26T02:53:52.168Z,26.39
2022-08-26T02:56:19.113Z,26.42
2022-08-26T02:58:46.256Z,26.15
2022-08-26T03:01:27.072Z,26.14
2022-08-26T03:03:55.062Z,26.04
2022-08-26T03:06:22.309Z,25.92
2022-08-26T03:08:49.750Z,25.86
2022-08-26T03:11:17.236Z,25.88
2022-08-26T03:13:45.916Z,25.74
2022-08-26T03:16:13.660Z,25.70
2022-08-26T03:18:41.434Z,25.67
2022-08-26T03:21:11.202Z,25.85
2022-08-26T03:23:41.317Z,25.89
2022-08-26T03:26:11.341Z,25.82
2022-08-26T03:29:02.586Z,25.87
2022-08-26T03:31:30.225Z,25.84
2022-08-26T03:33:59.727Z,25.80
2022-08-26T03:36:27.644Z,25.90
2022-08-26T03:38:54.719Z,25.86
2022-08-26T03:41:21.916Z,25.88
2022-08-26T03:43:50.802Z,25.95
2022-08-26T03:46:18.554Z,25.96
2022-08-26T03:48:45.908Z,25.87
2022-08-26T03:51:18.455Z,25.77
2022-08-26T03:53:46.476Z,25.89
2022-08-26T03:56:13.461Z,25.91
2022-08-26T03:58:42.982Z,25.92
2022-08-26T04:01:11.502Z,25.90
2022-08-26T04:03:57.518Z,25.83
2022-08-26T04:06:34.991Z,25.87
2022-08-26T04:09:07.601Z,25.86
2022-08-26T04:11:38.218Z,25.93
2022-08-26T04:14:14.306Z,25.97
2022-08-26T04:16:48.171Z,25.86
2022-08-26T04:19:17.799Z,25.87
2022-08-26T04:21:53.101Z,25.74
2022-08-26T04:24:24.621Z,25.75
2022-08-26T04:26:54.349Z,25.86
2022-08-26T04:29:25.492Z,25.80
2022-08-26T04:31:57.301Z,25.93
2022-08-26T04:34:28.634Z,25.92
2022-08-26T04:37:00.023Z,25.95
2022-08-26T04:39:28.024Z,25.96
2022-08-26T04:41:55.840Z,25.93
2022-08-26T04:44:29.941Z,26.00
2022-08-26T04:46:58.682Z,25.92
2022-08-26T04:49:26.924Z,25.95
2022-08-26T04:51:55.023Z,25.99
2022-08-26T04:54:25.086Z,26.00
2022-08-26T04:56:53.242Z,26.00
2022-08-26T04:59:21.292Z,26.03
2022-08-26T05:01:52.009Z,26.13
2022-08-26T05:04:21.222Z,26.21
2022-08-26T05:06:49.041Z,26.13
2022-08-26T05:09:18.746Z,26.17
2022-08-26T05:11:48.572Z,26.09
2022-08-26T05:14:19.640Z,26.15
2022-08-26T05:16:47.885Z,26.15
2022-08-26T05:19:19.177Z,26.26
2022-08-26T05:21:49.853Z,26.40
2022-08-26T05:24:18.481Z,26.39
2022-08-26T05:26:48.422Z,26.38
2022-08-26T05:29:16.221Z,26.46
2022-08-26T05:31:44.856Z,26.10
2022-08-26T05:34:12.720Z,25.91
2022-08-26T05:36:41.370Z,25.76
2022-08-26T05:39:10.637Z,25.91
2022-08-26T05:41:41.228Z,25.49
2022-08-26T05:44:15.538Z,25.74
2022-08-26T05:46:44.835Z,25.97
2022-08-26T05:49:15.897Z,25.94
2022-08-26T05:51:47.726Z,25.80
2022-08-26T05:54:21.700Z,25.75
2022-08-26T05:56:49.796Z,25.66
2022-08-26T05:59:28.914Z,25.59
2022-08-26T06:01:56.524Z,25.62
2022-08-26T06:04:26.998Z,25.71
2022-08-26T06:06:57.585Z,25.65
2022-08-26T06:09:25.490Z,25.68
2022-08-26T06:11:53.010Z,25.58
2022-08-26T06:14:22.202Z,25.77
2022-08-26T06:16:49.915Z,25.77
2022-08-26T06:19:17.493Z,25.89
2022-08-26T06:21:47.661Z,25.94
2022-08-26T06:24:41.162Z,25.77
2022-08-26T06:27:15.308Z,25.61
2022-08-26T06:29:42.712Z,25.41
2022-08-26T06:32:09.840Z,25.34
2022-08-26T06:34:36.949Z,25.26
2022-08-26T06:37:06.675Z,25.22
2022-08-26T06:39:34.454Z,25.23
2022-08-26T06:42:06.275Z,25.28
2022-08-26T06:44:36.361Z,25.15
2022-08-26T06:47:04.463Z,25.42
2022-08-26T06:49:34.202Z,25.34
2022-08-26T06:52:05.512Z,25.27
2022-08-26T06:54:35.095Z,25.43
2022-08-26T06:57:03.782Z,25.55
2022-08-26T06:59:31.617Z,25.50
2022-08-26T07:01:59.120Z,25.73
2022-08-26T07:04:29.364Z,25.64
2022-08-26T07:06:57.047Z,25.61
2022-08-26T07:09:30.572Z,25.41
2022-08-26T07:11:58.001Z,25.24
2022-08-26T07:14:26.362Z,25.20
2022-08-26T07:16:54.739Z,25.24
2022-08-26T07:19:31.015Z,25.11
2022-08-26T07:22:06.458Z,24.90
2022-08-26T07:24:38.563Z,24.91
2022-08-26T07:27:10.880Z,24.86
2022-08-26T07:29:42.080Z,24.84
2022-08-26T07:32:11.755Z,24.80
2022-08-26T07:34:40.062Z,24.87
2022-08-26T07:37:09.522Z,24.94
2022-08-26T07:39:37.374Z,24.83
2022-08-26T07:42:08.222Z,24.91
2022-08-26T07:44:41.106Z,24.83
2022-08-26T07:47:25.565Z,24.81
2022-08-26T07:49:57.388Z,24.96
2022-08-26T07:52:27.330Z,25.08
2022-08-26T07:54:58.818Z,24.82
2022-08-26T07:57:29.696Z,25.04
2022-08-26T08:00:04.416Z,24.93
2022-08-26T08:02:39.840Z,25.05
2022-08-26T08:05:08.319Z,25.14
2022-08-26T08:07:44.501Z,25.12
2022-08-26T08:10:21.760Z,24.97
2022-08-26T08:12:53.620Z,25.08
2022-08-26T08:15:25.121Z,25.07
2022-08-26T08:18:00.910Z,25.02
2022-08-26T08:20:33.808Z,25.03
2022-08-26T08:23:05.280Z,25.08
2022-08-26T08:25:35.093Z,25.12
2022-08-26T08:28:06.835Z,25.14
2022-08-26T08:30:41.365Z,25.27
2022-08-26T08:33:10.217Z,25.34
2022-08-26T08:35:41.096Z,25.54
2022-08-26T08:38:09.740Z,25.37
2022-08-26T08:40:42.617Z,25.33
2022-08-26T08:43:37.729Z,25.42
2022-08-26T08:46:13.244Z,25.39
2022-08-26T08:48:57.635Z,25.33
2022-08-26T08:51:48.434Z,25.68
2022-08-26T08:54:16.141Z,25.66
2022-08-26T08:56:57.418Z,25.67
2022-08-26T08:59:32.707Z,25.48
2022-08-26T09:02:20.120Z,25.59
2022-08-26T09:05:03.521Z,25.66
2022-08-26T09:07:52.763Z,25.65
2022-08-26T09:10:44.115Z,25.68
2022-08-26T09:13:16.781Z,25.69
2022-08-26T09:16:10.565Z,25.73
2022-08-26T09:19:18.827Z,25.71
2022-08-26T09:21:46.655Z,25.70
2022-08-26T09:24:22.880Z,25.27
2022-08-26T09:26:59.443Z,25.18
2022-08-26T09:29:41.767Z,25.08
2022-08-26T09:32:26.871Z,25.25
2022-08-26T09:35:10.928Z,25.36
2022-08-26T09:37:41.330Z,25.28
2022-08-26T09:40:19.108Z,25.17
2022-08-26T09:42:48.215Z,25.16
2022-08-26T09:45:30.314Z,25.33
2022-08-26T09:48:01.336Z,25.62
2022-08-26T09:50:39.428Z,25.76
2022-08-26T09:53:28.842Z,25.94
2022-08-26T09:56:25.713Z,25.77
2022-08-26T09:58:56.163Z,25.74
2022-08-26T10:01:26.830Z,25.60
2022-08-26T10:04:26.765Z,25.55
2022-08-26T10:07:03.350Z,25.85
2022-08-26T10:09:44.536Z,26.08
2022-08-26T10:12:21.542Z,26.21
2022-08-26T10:14:57.900Z,26.46
2022-08-26T10:17:51.824Z,26.82
2022-08-26T10:20:38.576Z,27.09
2022-08-26T10:23:15.931Z,27.31
2022-08-26T10:25:53.790Z,27.36
2022-08-26T10:29:13.555Z,27.65
2022-08-26T10:32:16.894Z,27.39
2022-08-26T10:34:47.229Z,27.19
2022-08-26T10:37:36.829Z,27.29
2022-08-26T10:40:04.449Z,27.34
2022-08-26T10:42:43.603Z,27.28
2022-08-26T10:45:20.329Z,27.37
2022-08-26T10:48:07.555Z,27.51
2022-08-26T10:50:44.129Z,26.98
2022-08-26T10:53:32.884Z,26.96
2022-08-26T10:56:51.533Z,26.73
2022-08-26T10:59:39.675Z,27.17
2022-08-26T11:02:15.696Z,27.33
2022-08-26T11:04:56.713Z,27.38
2022-08-26T11:07:44.245Z,27.35
2022-08-26T11:10:23.857Z,27.15
2022-08-26T11:13:01.268Z,26.90
2022-08-26T11:15:34.229Z,27.05
2022-08-26T11:18:05.083Z,27.27
2022-08-26T11:24:53.845Z,27.60
2022-08-26T11:27:23.528Z,27.88
2022-08-26T11:30:19.773Z,27.84
2022-08-26T11:32:56.379Z,27.66
2022-08-26T11:35:24.674Z,27.76
2022-08-26T11:38:06.841Z,27.93
2022-08-26T11:40:38.688Z,27.66
2022-08-26T11:43:22.267Z,27.76
2022-08-26T11:46:16.828Z,27.85
2022-08-26T11:48:46.649Z,27.91
2022-08-26T11:51:24.990Z,27.84
2022-08-26T11:54:17.004Z,27.81
2022-08-26T11:56:59.514Z,27.80
2022-08-26T11:59:39.108Z,27.68
2022-08-26T12:02:18.195Z,27.86
2022-08-26T12:04:52.020Z,27.71
2022-08-26T12:07:25.098Z,27.86
2022-08-26T12:10:02.121Z,27.88
2022-08-26T12:12:37.465Z,28.09
2022-08-26T12:15:23.283Z,28.17
2022-08-26T12:17:54.580Z,28.28
2022-08-26T12:20:48.861Z,28.34
2022-08-26T12:23:40.733Z,28.18
2022-08-26T12:26:13.519Z,28.19
2022-08-26T12:28:48.774Z,28.16
2022-08-26T12:31:29.273Z,28.23
2022-08-26T12:33:59.407Z,28.31
2022-08-26T12:36:48.736Z,28.38
2022-08-26T12:39:28.967Z,28.46
2022-08-26T12:41:59.279Z,28.39
2022-08-26T12:44:53.718Z,28.56
2022-08-26T12:47:42.703Z,27.93
2022-08-26T12:50:31.008Z,27.92
2022-08-26T12:53:22.392Z,27.84
2022-08-26T12:55:54.058Z,27.84
2022-08-26T12:58:23.460Z,27.98
2022-08-26T13:01:08.881Z,28.02
2022-08-26T13:03:38.974Z,28.12
2022-08-26T13:06:19.953Z,28.41
2022-08-26T13:09:04.443Z,28.72
2022-08-26T13:11:45.370Z,28.59
2022-08-26T13:14:24.312Z,28.65
2022-08-26T13:16:54.116Z,28.52
2022-08-26T13:19:24.259Z,28.49
2022-08-26T13:21:56.991Z,28.52
2022-08-26T13:24:48.728Z,28.67
2022-08-26T13:27:20.675Z,28.69
2022-08-26T13:29:48.784Z,28.51
2022-08-26T13:32:18.266Z,28.42
2022-08-26T13:34:51.280Z,28.49
2022-08-26T13:37:34.349Z,28.33
2022-08-26T13:40:07.249Z,28.32
2022-08-26T13:42:35.839Z,28.32
2022-08-26T13:45:06.943Z,28.36
2022-08-26T13:47:35.235Z,28.39
2022-08-26T13:50:06.284Z,28.36
2022-08-26T14:59:07.378Z,29.22
2022-08-26T15:01:38.397Z,29.17
2022-08-26T15:04:08.496Z,29.07
2022-08-26T15:06:36.431Z,28.80
2022-08-26T15:09:06.611Z,28.76
2022-08-26T15:11:43.502Z,28.76
2022-08-26T15:14:14.755Z,28.53
2022-08-26T15:16:50.716Z,28.62
2022-08-26T15:19:20.844Z,28.51
2022-08-26T15:21:50.114Z,28.46
2022-08-26T15:24:20.312Z,28.58
2022-08-26T15:26:51.823Z,28.49
2022-08-26T15:29:24.153Z,28.49
2022-08-26T15:31:51.537Z,28.43
2022-08-26T15:34:22.356Z,28.58
2022-08-26T15:36:49.475Z,28.60
2022-08-26T15:39:18.157Z,28.48
2022-08-26T15:41:46.957Z,28.43
2022-08-26T15:44:18.513Z,28.40
2022-08-26T15:46:52.472Z,28.38
2022-08-26T15:49:23.755Z,28.39
2022-08-26T15:51:51.131Z,28.40
2022-08-26T15:54:23.000Z,28.28
2022-08-26T15:56:52.543Z,28.19
2022-08-26T15:59:21.902Z,28.16
2022-08-26T16:01:51.761Z,28.24
2022-08-26T16:04:20.605Z,28.17
2022-08-26T16:06:50.418Z,28.17
2022-08-26T16:09:21.185Z,28.05
2022-08-26T16:11:48.574Z,28.07
2022-08-26T16:14:15.696Z,28.12
2022-08-26T16:16:43.914Z,28.03
2022-08-26T16:19:11.733Z,28.06
2022-08-26T16:21:40.151Z,28.13
2022-08-26T16:24:12.069Z,28.10
2022-08-26T16:26:41.383Z,28.14
2022-08-26T16:29:13.184Z,28.07
2022-08-26T16:31:42.516Z,28.09
2022-08-26T16:34:10.267Z,28.07
2022-08-26T16:36:38.759Z,28.08
2022-08-26T16:39:07.539Z,28.11
2022-08-26T16:41:35.841Z,28.03
2022-08-26T16:44:03.898Z,28.06
2022-08-26T16:46:31.238Z,28.06
2022-08-26T16:49:03.805Z,28.08
2022-08-26T16:51:32.889Z,28.10
2022-08-26T16:54:07.421Z,28.08
2022-08-26T16:56:36.455Z,28.06
2022-08-26T16:59:06.631Z,27.83
2022-08-26T17:01:34.314Z,27.87
2022-08-26T17:04:01.272Z,27.83
2022-08-26T17:06:28.759Z,27.78
2022-08-26T17:08:55.807Z,27.75
2022-08-26T17:11:22.934Z,27.77
2022-08-26T17:13:52.679Z,27.73
2022-08-26T17:16:26.601Z,27.78
2022-08-26T17:19:00.337Z,27.78
2022-08-26T17:21:29.071Z,27.80
2022-08-26T17:23:57.120Z,27.77
2022-08-26T17:26:27.120Z,27.72
2022-08-26T17:28:55.427Z,27.57
2022-08-26T17:31:23.785Z,27.56
2022-08-26T17:33:53.437Z,27.58
2022-08-26T17:36:23.105Z,27.61
2022-08-26T17:38:56.202Z,27.53
2022-08-26T17:41:23.148Z,27.33
2022-08-26T17:43:50.350Z,27.08
2022-08-26T17:46:17.397Z,26.89
2022-08-26T17:48:47.192Z,26.50
2022-08-26T17:51:17.171Z,26.60
2022-08-26T17:53:44.137Z,26.25
2022-08-26T17:56:14.394Z,26.19
2022-08-26T17:58:47.999Z,26.32
2022-08-26T18:01:19.949Z,26.50
2022-08-26T18:03:47.030Z,26.51
2022-08-26T18:06:14.583Z,26.47
2022-08-26T18:08:42.349Z,26.39
2022-08-26T18:11:17.473Z,26.47
2022-08-26T18:13:47.117Z,26.55
2022-08-26T18:16:17.132Z,26.72
2022-08-26T18:18:44.709Z,26.79
2022-08-26T18:21:32.080Z,26.76
2022-08-26T18:23:59.464Z,26.75
2022-08-26T18:26:31.388Z,26.70
2022-08-26T18:28:59.056Z,26.79
2022-08-26T18:31:26.886Z,26.80
2022-08-26T18:33:54.377Z,26.73
2022-08-26T18:36:33.209Z,26.64
2022-08-26T18:39:06.169Z,26.70
2022-08-26T18:41:39.935Z,26.67
2022-08-26T18:44:08.559Z,26.54
2022-08-26T18:46:41.925Z,26.57
2022-08-26T18:49:12.594Z,26.63
2022-08-26T18:51:40.196Z,26.45
2022-08-26T18:54:08.467Z,26.41
2022-08-26T18:56:37.344Z,26.44
2022-08-26T18:59:07.461Z,26.45
2022-08-26T19:01:40.677Z,26.46
2022-08-26T19:04:15.362Z,26.47
2022-08-26T19:06:47.521Z,26.47
2022-08-26T19:09:17.918Z,26.52
2022-08-26T19:11:47.040Z,26.18
2022-08-26T19:14:17.204Z,25.94
2022-08-26T19:16:46.619Z,25.66
